Time;durP1;ratioP1;P1;durP2;ratioP2;P2;SDS_P1;SDS_P2;PMS_P1;PMS_P2;Temp;Humidity;BMP_temperature;BMP_pressure;BME280_temperature;BME280_humidity;BME280_pressure;Samples;Min_cycle;Max_cycle;Signal;HPM_P1;HPM_P2
2023/12/10 00:02:26;;;;;;;2.50;2.13;;;;;;;-141.84;100.00;119224.81;4998708;28;20389;-70
2023/12/10 00:04:56;;;;;;;3.57;2.17;;;;;;;-141.84;100.00;119224.81;4998587;28;20219;-71
2023/12/10 00:07:25;;;;;;;3.60;2.20;;;;;;;-141.84;100.00;119224.81;4998386;28;20302;-70
2023/12/10 00:09:53;;;;;;;2.80;2.20;;;;;;;-141.84;100.00;119224.81;5009430;28;20232;-71
2023/12/10 00:12:22;;;;;;;3.20;2.40;;;;;;;-141.84;100.00;119224.81;5009842;28;20238;-72
2023/12/10 00:14:58;;;;;;;2.10;1.90;;;;;;;-141.84;100.00;119224.81;5010204;28;20191;-71
2023/12/10 00:17:27;;;;;;;2.50;1.90;;;;;;;-141.84;100.00;119224.81;5010453;28;20415;-71
2023/12/10 00:19:57;;;;;;;2.47;2.00;;;;;;;-141.84;100.00;119224.81;5009803;28;20725;-69
2023/12/10 00:22:27;;;;;;;2.53;2.00;;;;;;;-141.84;100.00;119224.81;5009933;28;20227;-69
2023/12/10 00:24:56;;;;;;;2.13;1.70;;;;;;;-141.84;100.00;119224.81;5010155;28;20266;-70
2023/12/10 00:27:25;;;;;;;2.67;2.03;;;;;;;-141.84;100.00;119224.81;5010140;28;20300;-70
2023/12/10 00:29:54;;;;;;;2.33;1.70;;;;;;;-141.84;100.00;119224.81;5011582;28;20268;-69
2023/12/10 00:32:22;;;;;;;2.47;1.80;;;;;;;-141.84;100.00;119224.81;5013994;28;20333;-71
2023/12/10 00:34:51;;;;;;;2.40;1.80;;;;;;;-141.84;100.00;119224.81;5013561;28;20329;-70
2023/12/10 00:37:21;;;;;;;1.60;1.50;;;;;;;-141.84;100.00;119224.81;5013253;28;20302;-70
2023/12/10 00:39:49;;;;;;;1.97;1.40;;;;;;;-141.84;100.00;119224.81;5029604;28;20718;-70
2023/12/10 00:42:18;;;;;;;2.60;1.67;;;;;;;-141.84;100.00;119224.81;5031035;28;20233;-69
2023/12/10 00:44:47;;;;;;;1.50;1.40;;;;;;;-141.84;100.00;119224.81;5013677;28;20213;-70
2023/12/10 00:47:16;;;;;;;1.87;1.40;;;;;;;-141.84;100.00;119224.81;5012188;28;20608;-69
2023/12/10 00:49:45;;;;;;;1.20;1.10;;;;;;;-141.84;100.00;119224.81;5012460;28;20321;-71
2023/12/10 00:52:13;;;;;;;1.57;1.30;;;;;;;-141.84;100.00;119224.81;5012547;28;20273;-69
2023/12/10 00:54:43;;;;;;;1.40;1.10;;;;;;;-141.84;100.00;119224.81;5018185;28;20229;-70
2023/12/10 00:57:13;;;;;;;3.53;1.60;;;;;;;-141.84;100.00;119224.81;5021005;28;20262;-69
2023/12/10 00:59:41;;;;;;;1.40;1.30;;;;;;;-141.84;100.00;119224.81;5024544;28;20207;-71
2023/12/10 01:02:10;;;;;;;1.20;1.07;;;;;;;-141.84;100.00;119224.81;5023357;28;20332;-70
2023/12/10 01:04:39;;;;;;;2.07;1.17;;;;;;;-141.84;100.00;119224.81;5022699;28;20221;-70
2023/12/10 01:07:08;;;;;;;2.77;1.30;;;;;;;-141.84;100.00;119224.81;5022422;28;20222;-71
2023/12/10 01:09:38;;;;;;;1.40;1.30;;;;;;;-141.84;100.00;119224.81;5025802;28;20653;-70
2023/12/10 01:12:09;;;;;;;1.50;1.40;;;;;;;-141.84;100.00;119224.81;5022234;28;20306;-70
2023/12/10 01:14:38;;;;;;;1.37;1.27;;;;;;;-141.84;100.00;119224.81;5019309;28;20185;-70
2023/12/10 01:17:08;;;;;;;1.73;1.23;;;;;;;-141.84;100.00;119224.81;5020812;28;20306;-69
2023/12/10 01:19:37;;;;;;;1.63;1.37;;;;;;;-141.84;100.00;119224.81;5021291;28;20225;-70
2023/12/10 01:22:06;;;;;;;1.60;1.50;;;;;;;-141.84;100.00;119224.81;5020729;28;20214;-70
2023/12/10 01:24:34;;;;;;;1.93;1.30;;;;;;;-141.84;100.00;119224.81;5028080;28;20234;-70
2023/12/10 01:27:03;;;;;;;2.17;1.30;;;;;;;-141.84;100.00;119224.81;5016166;28;20201;-69
2023/12/10 01:29:33;;;;;;;2.23;1.40;;;;;;;-141.84;100.00;119224.81;5015094;28;20226;-71
2023/12/10 01:32:01;;;;;;;1.30;1.20;;;;;;;-141.84;100.00;119224.81;5015930;28;20707;-70
2023/12/10 01:34:30;;;;;;;1.57;1.23;;;;;;;-141.84;100.00;119224.81;5017551;28;20280;-71
2023/12/10 01:36:59;;;;;;;1.10;1.00;;;;;;;-141.84;100.00;119224.81;5024113;28;20257;-70
2023/12/10 01:39:30;;;;;;;1.20;1.10;;;;;;;-141.84;100.00;119224.81;5009411;28;20255;-70
2023/12/10 01:42:00;;;;;;;2.37;2.03;;;;;;;-141.84;100.00;119224.81;5030921;28;20189;-70
2023/12/10 01:44:30;;;;;;;1.93;1.00;;;;;;;-141.84;100.00;119224.81;5019561;28;20251;-71
2023/12/10 01:47:01;;;;;;;1.50;1.00;;;;;;;-141.84;100.00;119224.81;5031632;28;20290;-70
2023/12/10 01:49:30;;;;;;;1.13;1.03;;;;;;;-141.84;100.00;119224.81;5016240;28;20228;-72
2023/12/10 01:51:58;;;;;;;1.33;1.20;;;;;;;-141.84;100.00;119224.81;5022304;28;20271;-71
2023/12/10 01:54:28;;;;;;;2.37;1.20;;;;;;;-141.84;100.00;119224.81;5023868;28;20291;-70
2023/12/10 01:56:57;;;;;;;1.30;1.20;;;;;;;-141.84;100.00;119224.81;5018902;28;20572;-71
2023/12/10 01:59:35;;;;;;;2.40;1.40;;;;;;;-141.84;100.00;119224.81;5023975;28;20617;-71
2023/12/10 02:02:05;;;;;;;1.30;1.20;;;;;;;-141.84;100.00;119224.81;5018395;28;20626;-71
2023/12/10 02:04:34;;;;;;;2.00;1.27;;;;;;;-141.84;100.00;119224.81;5021558;28;20265;-70
2023/12/10 02:07:02;;;;;;;2.17;1.43;;;;;;;-141.84;100.00;119224.81;5019176;28;20222;-71
2023/12/10 02:09:31;;;;;;;1.83;1.40;;;;;;;-141.84;100.00;119224.81;5021990;28;20246;-71
2023/12/10 02:12:01;;;;;;;2.00;1.50;;;;;;;-141.84;100.00;119224.81;5014116;28;20230;-70
2023/12/10 02:14:29;;;;;;;2.17;1.37;;;;;;;-141.84;100.00;119224.81;5012314;28;20222;-72
2023/12/10 02:16:58;;;;;;;1.80;1.60;;;;;;;-141.84;100.00;119224.81;5022033;28;20295;-71
2023/12/10 02:19:28;;;;;;;1.40;1.30;;;;;;;-141.84;100.00;119224.81;5031446;28;20262;-71
2023/12/10 02:21:59;;;;;;;2.23;1.50;;;;;;;-141.84;100.00;119224.81;5027029;28;20230;-70
2023/12/10 02:24:33;;;;;;;2.27;1.67;;;;;;;-141.84;100.00;119224.81;5011198;28;20743;-70
2023/12/10 02:27:03;;;;;;;1.73;1.63;;;;;;;-141.84;100.00;119224.81;5010286;28;20589;-69
2023/12/10 02:29:32;;;;;;;2.17;1.60;;;;;;;-141.84;100.00;119224.81;5025059;28;20294;-70
2023/12/10 02:32:01;;;;;;;1.57;1.47;;;;;;;-141.84;100.00;119224.81;5027063;28;20254;-70
2023/12/10 02:34:30;;;;;;;1.60;1.50;;;;;;;-141.84;100.00;119224.81;5019304;28;20272;-69
2023/12/10 02:36:58;;;;;;;3.00;1.67;;;;;;;-141.84;100.00;119224.81;5023972;28;20260;-71
2023/12/10 02:39:27;;;;;;;1.80;1.67;;;;;;;-141.84;100.00;119224.81;5012102;28;20234;-70
2023/12/10 02:41:56;;;;;;;1.87;1.67;;;;;;;-141.84;100.00;119224.81;5011574;28;20210;-69
2023/12/10 02:44:26;;;;;;;2.00;1.80;;;;;;;-141.84;100.00;119224.81;5021481;28;20198;-70
2023/12/10 02:46:54;;;;;;;1.53;1.43;;;;;;;-141.84;100.00;119224.81;5017827;28;20305;-71
2023/12/10 02:49:23;;;;;;;2.67;1.50;;;;;;;-141.84;100.00;119224.81;5017360;28;20654;-69
2023/12/10 02:51:52;;;;;;;1.63;1.43;;;;;;;-141.84;100.00;119224.81;5018194;28;20218;-69
2023/12/10 02:54:20;;;;;;;1.50;1.40;;;;;;;-141.84;100.00;119224.81;5030952;28;20566;-70
2023/12/10 02:56:49;;;;;;;2.10;1.83;;;;;;;-141.84;100.00;119224.81;5002293;28;20747;-70
2023/12/10 02:59:17;;;;;;;1.70;1.53;;;;;;;-141.84;100.00;119224.81;5018129;28;20264;-70
2023/12/10 03:01:48;;;;;;;3.07;1.90;;;;;;;-141.84;100.00;119224.81;5020399;28;20237;-69
2023/12/10 03:04:16;;;;;;;2.20;1.93;;;;;;;-141.84;100.00;119224.81;5016538;28;20263;-69
2023/12/10 03:06:45;;;;;;;2.57;1.63;;;;;;;-141.84;100.00;119224.81;5017019;28;20226;-70
2023/12/10 03:09:14;;;;;;;3.83;2.53;;;;;;;-141.84;100.00;119224.81;5019740;28;20288;-70
2023/12/10 03:11:42;;;;;;;3.27;2.63;;;;;;;-141.84;100.00;119224.81;5018857;28;20283;-70
2023/12/10 03:14:11;;;;;;;2.63;2.43;;;;;;;-141.84;100.00;119224.81;5017285;28;20321;-70
2023/12/10 03:16:41;;;;;;;3.73;3.03;;;;;;;-141.84;100.00;119224.81;5018294;28;20222;-71
2023/12/10 03:19:11;;;;;;;3.63;2.87;;;;;;;-141.84;100.00;119224.81;5019821;28;20313;-69
2023/12/10 03:21:40;;;;;;;4.40;2.80;;;;;;;-141.84;100.00;119224.81;5020573;28;20237;-69
2023/12/10 03:24:09;;;;;;;5.53;3.17;;;;;;;-141.84;100.00;119224.81;5018681;28;20205;-71
2023/12/10 03:26:38;;;;;;;4.03;2.87;;;;;;;-141.84;100.00;119224.81;5019209;28;20289;-70
2023/12/10 03:29:07;;;;;;;3.60;3.30;;;;;;;-141.84;100.00;119224.81;5016034;28;20229;-69
2023/12/10 03:31:35;;;;;;;3.97;3.13;;;;;;;-141.84;100.00;119224.81;5018953;28;20318;-69
2023/12/10 03:34:04;;;;;;;5.97;3.40;;;;;;;-141.84;100.00;119224.81;5017530;28;20230;-69
2023/12/10 03:36:34;;;;;;;4.07;3.00;;;;;;;-141.84;100.00;119224.81;5019242;28;20315;-69
2023/12/10 03:39:04;;;;;;;4.40;2.90;;;;;;;-141.84;100.00;119224.81;5016113;28;20289;-69
2023/12/10 03:41:33;;;;;;;4.40;3.00;;;;;;;-141.84;100.00;119224.81;5012328;28;20222;-70
2023/12/10 03:44:01;;;;;;;5.00;4.07;;;;;;;-141.84;100.00;119224.81;4996270;28;20217;-70
2023/12/10 03:46:30;;;;;;;4.53;3.60;;;;;;;-141.84;100.00;119224.81;5021901;28;20221;-70
2023/12/10 03:48:58;;;;;;;5.93;4.50;;;;;;;-141.84;100.00;119224.81;5025315;28;20230;-69
2023/12/10 03:51:27;;;;;;;4.17;3.03;;;;;;;-141.84;100.00;119224.81;5017834;28;20269;-71
2023/12/10 03:54:02;;;;;;;5.50;3.17;;;;;;;-141.84;100.00;119224.81;5019106;28;20202;-69
2023/12/10 03:56:30;;;;;;;4.50;3.33;;;;;;;-141.84;100.00;119224.81;5021311;28;20289;-71
2023/12/10 03:58:59;;;;;;;5.00;3.43;;;;;;;-141.84;100.00;119224.81;5018605;28;20272;-69
2023/12/10 04:01:28;;;;;;;4.80;3.20;;;;;;;-141.84;100.00;119224.81;5016933;28;20218;-69
2023/12/10 04:03:56;;;;;;;6.20;4.27;;;;;;;-141.84;100.00;119224.81;5017825;28;20230;-70
2023/12/10 04:06:26;;;;;;;4.17;3.27;;;;;;;-141.84;100.00;119224.81;5024573;28;20230;-70
2023/12/10 04:08:55;;;;;;;5.23;3.40;;;;;;;-141.84;100.00;119224.81;5034025;28;20537;-69
2023/12/10 04:11:25;;;;;;;5.07;2.80;;;;;;;-141.84;100.00;119224.81;5014933;28;20206;-70
2023/12/10 04:13:54;;;;;;;5.43;3.13;;;;;;;-141.84;100.00;119224.81;5013907;28;20226;-69
2023/12/10 04:16:26;;;;;;;4.23;3.00;;;;;;;-141.84;100.00;119224.81;5013821;28;20258;-69
2023/12/10 04:18:55;;;;;;;3.87;2.50;;;;;;;-141.84;100.00;119224.81;5018253;28;20341;-68
2023/12/10 04:21:24;;;;;;;3.57;2.53;;;;;;;-141.84;100.00;119224.81;5027473;28;20245;-70
2023/12/10 04:23:53;;;;;;;3.53;2.30;;;;;;;-141.84;100.00;119224.81;5018404;28;20191;-69
2023/12/10 04:26:21;;;;;;;5.23;3.13;;;;;;;-141.84;100.00;119224.81;5014037;28;20234;-70
2023/12/10 04:28:51;;;;;;;4.40;2.90;;;;;;;-141.84;100.00;119224.81;5012364;28;20818;-70
2023/12/10 04:31:20;;;;;;;3.70;2.43;;;;;;;-141.84;100.00;119224.81;5016419;28;20565;-70
2023/12/10 04:33:48;;;;;;;4.70;2.77;;;;;;;-141.84;100.00;119224.81;5033223;28;20258;-69
2023/12/10 04:36:17;;;;;;;3.60;2.40;;;;;;;-141.84;100.00;119224.81;5015667;28;20244;-70
2023/12/10 04:38:46;;;;;;;8.07;2.40;;;;;;;-141.84;100.00;119224.81;5009876;28;20220;-69
2023/12/10 04:41:15;;;;;;;4.17;2.30;;;;;;;-141.84;100.00;119224.81;4996496;28;20267;-68
2023/12/10 04:43:44;;;;;;;5.93;2.60;;;;;;;-141.84;100.00;119224.81;4994755;28;20227;-69
2023/12/10 04:46:15;;;;;;;5.53;2.73;;;;;;;-141.84;100.00;119224.81;4995410;28;20801;-69
2023/12/10 04:48:43;;;;;;;6.87;3.33;;;;;;;-141.84;100.00;119224.81;4996015;28;20234;-69
2023/12/10 04:51:13;;;;;;;7.00;3.73;;;;;;;-141.84;100.00;119224.81;4996363;28;20610;-69
2023/12/10 04:53:41;;;;;;;7.43;2.83;;;;;;;-141.84;100.00;119224.81;4996004;28;20223;-69
2023/12/10 04:56:11;;;;;;;7.30;3.40;;;;;;;-141.84;100.00;119224.81;4996154;28;20262;-68
2023/12/10 04:58:39;;;;;;;5.17;2.50;;;;;;;-141.84;100.00;119224.81;5012420;28;20781;-70
2023/12/10 05:01:08;;;;;;;5.60;3.03;;;;;;;-141.84;100.00;119224.81;5013860;28;20236;-69
2023/12/10 05:03:38;;;;;;;7.80;2.83;;;;;;;-141.84;100.00;119224.81;5013406;28;20227;-68
2023/12/10 05:06:08;;;;;;;7.60;3.03;;;;;;;-141.84;100.00;119224.81;5013487;28;20203;-69
2023/12/10 05:08:36;;;;;;;6.87;3.03;;;;;;;-141.84;100.00;119224.81;5013467;28;20297;-70
2023/12/10 05:11:05;;;;;;;5.50;2.70;;;;;;;-141.84;100.00;119224.81;5012314;28;20233;-69
2023/12/10 05:13:35;;;;;;;9.00;2.80;;;;;;;-141.84;100.00;119224.81;5012604;28;20234;-69
2023/12/10 05:16:04;;;;;;;5.63;2.37;;;;;;;-141.84;100.00;119224.81;5011958;28;20812;-69
2023/12/10 05:18:33;;;;;;;10.00;2.77;;;;;;;-141.84;100.00;119224.81;5012978;28;20226;-68
2023/12/10 05:21:03;;;;;;;8.57;3.00;;;;;;;-141.84;100.00;119224.81;5012858;28;20199;-68
2023/12/10 05:23:32;;;;;;;4.87;2.60;;;;;;;-141.84;100.00;119224.81;5013060;28;20272;-69
2023/12/10 05:26:00;;;;;;;8.90;3.20;;;;;;;-141.84;100.00;119224.81;5012426;28;20270;-69
2023/12/10 05:28:29;;;;;;;8.30;3.10;;;;;;;-141.84;100.00;119224.81;5012460;28;20698;-69
2023/12/10 05:30:57;;;;;;;7.67;3.13;;;;;;;-141.84;100.00;119224.81;5012270;28;20326;-69
2023/12/10 05:33:26;;;;;;;10.57;3.10;;;;;;;-141.84;100.00;119224.81;5013138;28;20231;-69
2023/12/10 05:35:55;;;;;;;12.73;3.53;;;;;;;-141.84;100.00;119224.81;5020816;28;20301;-70
2023/12/10 05:38:25;;;;;;;7.67;3.13;;;;;;;-141.84;100.00;119224.81;5027129;28;20300;-69
2023/12/10 05:40:54;;;;;;;8.57;3.53;;;;;;;-141.84;100.00;119224.81;5022261;28;20229;-70
2023/12/10 05:43:22;;;;;;;10.20;3.13;;;;;;;-141.84;100.00;119224.81;5012451;28;20227;-68
2023/12/10 05:45:51;;;;;;;10.50;3.23;;;;;;;-141.84;100.00;119224.81;5025068;28;20283;-69
2023/12/10 05:48:20;;;;;;;10.30;2.73;;;;;;;-141.84;100.00;119224.81;5022654;28;20227;-70
2023/12/10 05:50:49;;;;;;;12.77;3.27;;;;;;;-141.84;100.00;119224.81;5018111;28;20225;-68
2023/12/10 05:53:18;;;;;;;7.53;3.30;;;;;;;-141.84;100.00;119224.81;5024961;28;20219;-68
2023/12/10 05:55:48;;;;;;;11.03;3.70;;;;;;;-141.84;100.00;119224.81;5006197;28;20225;-68
2023/12/10 05:58:16;;;;;;;12.77;3.43;;;;;;;-141.84;100.00;119224.81;5015432;28;20785;-70
2023/12/10 06:00:45;;;;;;;11.90;3.63;;;;;;;-141.84;100.00;119224.81;5015810;28;20257;-69
2023/12/10 06:03:14;;;;;;;14.63;3.63;;;;;;;-141.84;100.00;119224.81;5014221;28;20705;-69
2023/12/10 06:05:42;;;;;;;13.87;4.70;;;;;;;-141.84;100.00;119224.81;5017353;28;20190;-69
2023/12/10 06:08:11;;;;;;;8.50;3.60;;;;;;;-141.84;100.00;119224.81;5030548;28;20221;-69
2023/12/10 06:10:39;;;;;;;18.27;4.03;;;;;;;-141.84;100.00;119224.81;5021179;28;20245;-68
2023/12/10 06:13:10;;;;;;;10.70;3.60;;;;;;;-141.84;100.00;119224.81;5018561;28;20409;-68
2023/12/10 06:15:38;;;;;;;12.83;3.73;;;;;;;-141.84;100.00;119224.81;5011466;28;20729;-69
2023/12/10 06:18:07;;;;;;;11.03;3.53;;;;;;;-141.84;100.00;119224.81;5014933;28;20666;-69
2023/12/10 06:20:36;;;;;;;8.27;3.00;;;;;;;-141.84;100.00;119224.81;5014521;28;20194;-69
2023/12/10 06:23:04;;;;;;;8.00;3.37;;;;;;;-141.84;100.00;119224.81;5013870;28;20233;-68
2023/12/10 06:25:33;;;;;;;11.73;3.03;;;;;;;-141.84;100.00;119224.81;4992011;28;20223;-69
2023/12/10 06:28:02;;;;;;;8.23;3.00;;;;;;;-141.84;100.00;119224.81;5008174;28;20245;-69
2023/12/10 06:30:32;;;;;;;8.07;2.83;;;;;;;-141.84;100.00;119224.81;5019504;28;20244;-70
2023/12/10 06:33:01;;;;;;;7.53;2.70;;;;;;;-141.84;100.00;119224.81;5018948;28;20229;-69
2023/12/10 06:35:30;;;;;;;8.87;2.70;;;;;;;-141.84;100.00;119224.81;5019405;28;20794;-69
2023/12/10 06:37:58;;;;;;;6.30;2.97;;;;;;;-141.84;100.00;119224.81;5018405;28;20273;-70
2023/12/10 06:40:27;;;;;;;9.30;2.87;;;;;;;-141.84;100.00;119224.81;5021647;28;20321;-69
2023/12/10 06:42:55;;;;;;;8.43;3.00;;;;;;;-141.84;100.00;119224.81;5028805;28;20308;-69
2023/12/10 06:45:24;;;;;;;13.60;3.27;;;;;;;-141.84;100.00;119224.81;5023431;28;20289;-69
2023/12/10 06:47:54;;;;;;;8.67;3.17;;;;;;;-141.84;100.00;119224.81;5023803;28;20201;-70
2023/12/10 06:50:22;;;;;;;7.90;3.03;;;;;;;-141.84;100.00;119224.81;5005721;28;20210;-69
2023/12/10 06:52:51;;;;;;;8.50;2.90;;;;;;;-141.84;100.00;119224.81;5004716;28;20254;-68
2023/12/10 06:55:20;;;;;;;9.50;3.27;;;;;;;-141.84;100.00;119224.81;5020950;28;20229;-69
2023/12/10 06:57:48;;;;;;;11.37;3.17;;;;;;;-141.84;100.00;119224.81;5021454;28;20630;-69
2023/12/10 07:00:19;;;;;;;14.53;4.13;;;;;;;-141.84;100.00;119224.81;5023797;28;20238;-69
2023/12/10 07:02:48;;;;;;;11.33;3.13;;;;;;;-141.84;100.00;119224.81;5021181;28;20187;-68
2023/12/10 07:05:18;;;;;;;9.70;3.40;;;;;;;-141.84;100.00;119224.81;5022791;28;20548;-69
2023/12/10 07:07:47;;;;;;;9.30;2.90;;;;;;;-141.84;100.00;119224.81;5028449;28;20222;-69
2023/12/10 07:10:15;;;;;;;13.57;3.27;;;;;;;-141.84;100.00;119224.81;5025354;28;20314;-69
2023/12/10 07:12:44;;;;;;;9.60;3.27;;;;;;;-141.84;100.00;119224.81;5019242;28;20234;-69
2023/12/10 07:15:13;;;;;;;7.13;2.90;;;;;;;-141.84;100.00;119224.81;5014798;28;20305;-69
2023/12/10 07:17:41;;;;;;;13.57;4.07;;;;;;;-141.84;100.00;119224.81;5017107;28;20218;-69
2023/12/10 07:20:11;;;;;;;13.13;3.10;;;;;;;-141.84;100.00;119224.81;5024496;28;20273;-68
2023/12/10 07:22:41;;;;;;;16.87;3.70;;;;;;;-141.84;100.00;119224.81;4995102;28;20262;-69
2023/12/10 07:25:10;;;;;;;11.27;4.07;;;;;;;-141.84;100.00;119224.81;5012982;28;20257;-69
2023/12/10 07:27:39;;;;;;;11.63;2.87;;;;;;;-141.84;100.00;119224.81;5016121;28;20750;-69
2023/12/10 07:30:08;;;;;;;14.73;3.33;;;;;;;-141.84;100.00;119224.81;5011570;28;20207;-69
2023/12/10 07:32:37;;;;;;;9.00;3.43;;;;;;;-141.84;100.00;119224.81;5015068;28;20231;-69
2023/12/10 07:35:06;;;;;;;10.07;2.87;;;;;;;-141.84;100.00;119224.81;5010390;28;20234;-69
2023/12/10 07:37:34;;;;;;;9.57;2.87;;;;;;;-141.84;100.00;119224.81;5010109;28;20236;-69
2023/12/10 07:40:06;;;;;;;12.50;3.33;;;;;;;-141.84;100.00;119224.81;5016528;28;20220;-69
2023/12/10 07:42:34;;;;;;;10.93;2.80;;;;;;;-141.84;100.00;119224.81;5010013;28;20254;-69
2023/12/10 07:45:03;;;;;;;8.27;2.70;;;;;;;-141.84;100.00;119224.81;5015783;28;20226;-68
2023/12/10 07:47:32;;;;;;;12.50;2.83;;;;;;;-141.84;100.00;119224.81;4993241;28;20238;-69
2023/12/10 07:50:01;;;;;;;9.87;3.70;;;;;;;-141.84;100.00;119224.81;5017820;28;20226;-68
2023/12/10 07:52:29;;;;;;;11.67;2.93;;;;;;;-141.84;100.00;119224.81;5010173;28;20244;-69
2023/12/10 07:54:58;;;;;;;10.20;3.20;;;;;;;-141.84;100.00;119224.81;5016353;28;20214;-68
2023/12/10 07:57:28;;;;;;;10.83;3.60;;;;;;;-141.84;100.00;119224.81;5004076;28;20239;-69
2023/12/10 07:59:57;;;;;;;15.90;3.47;;;;;;;-141.84;100.00;119224.81;5001492;28;20203;-68
2023/12/10 08:02:26;;;;;;;12.00;3.17;;;;;;;-141.84;100.00;119224.81;4992100;28;20290;-69
2023/12/10 08:04:55;;;;;;;8.93;3.00;;;;;;;-141.84;100.00;119222.75;4997674;28;20231;-68
2023/12/10 08:07:23;;;;;;;13.43;3.73;;;;;;;-141.84;100.00;117889.44;4998141;28;20219;-69
2023/12/10 08:09:52;;;;;;;18.53;4.47;;;;;;;-141.84;100.00;116290.06;5000383;28;20222;-68
2023/12/10 08:12:21;;;;;;;11.07;3.27;;;;;;;-141.84;100.00;110164.91;5000168;28;20223;-68
2023/12/10 08:14:50;;;;;;;9.77;3.37;;;;;;;-141.84;100.00;109632.72;5001570;28;20269;-68
2023/12/10 08:17:19;;;;;;;10.00;3.40;;;;;;;-141.84;100.00;111229.50;4999414;28;20207;-69
2023/12/10 08:19:48;;;;;;;11.77;4.07;;;;;;;-141.84;100.00;109632.72;4997532;28;20266;-68
2023/12/10 08:22:16;;;;;;;14.70;4.33;;;;;;;-141.84;100.00;106706.94;4998727;28;20227;-69
2023/12/10 08:24:45;;;;;;;11.33;2.90;;;;;;;-141.84;100.00;106706.94;4998802;28;20754;-68
2023/12/10 08:27:14;;;;;;;12.93;3.07;;;;;;;-141.84;100.00;104314.66;4997478;28;20231;-69
2023/12/10 08:29:42;;;;;;;8.90;3.57;;;;;;;-141.84;100.00;104048.94;5006594;28;20207;-68
2023/12/10 08:32:12;;;;;;;10.60;3.30;;;;;;;-141.84;100.00;107238.72;4997436;28;20231;-69
2023/12/10 08:34:41;;;;;;;12.50;3.23;;;;;;;-141.84;100.00;104314.66;5002216;28;20257;-69
2023/12/10 08:37:10;;;;;;;17.30;3.47;;;;;;;-141.84;100.00;105909.34;5007679;28;20317;-68
2023/12/10 08:39:39;;;;;;;15.00;3.67;;;;;;;-141.84;100.00;107238.72;5004715;28;20321;-68
2023/12/10 08:42:07;;;;;;;13.63;3.40;;;;;;;-141.84;100.00;109898.81;5005772;28;20196;-68
2023/12/10 08:44:36;;;;;;;11.03;3.23;;;;;;;-141.84;100.00;109632.72;4993807;28;20286;-69
2023/12/10 08:47:05;;;;;;;13.00;2.97;;;;;;;-141.84;100.00;110164.91;5008542;28;20297;-70
2023/12/10 08:49:35;;;;;;;14.53;3.90;;;;;;;-141.84;100.00;110963.31;5000913;28;20258;-69
2023/12/10 08:52:03;;;;;;;11.27;3.00;;;;;;;-141.84;100.00;112028.13;5012838;28;20229;-69
2023/12/10 08:54:32;;;;;;;11.00;4.33;;;;;;;-141.84;100.00;113359.50;5012769;28;20729;-68
2023/12/10 08:57:01;;;;;;;11.10;3.30;;;;;;;-141.84;100.00;114158.53;5010663;28;20222;-69
2023/12/10 08:59:29;;;;;;;13.17;3.50;;;;;;;-141.84;100.00;116023.56;5013209;28;20303;-69
2023/12/10 09:01:58;;;;;;;11.80;3.77;;;;;;;-141.84;100.00;117356.25;5012997;28;20317;-69
2023/12/10 09:04:26;;;;;;;12.53;3.70;;;;;;;-141.84;100.00;117889.44;5012936;28;20252;-69
2023/12/10 09:06:56;;;;;;;10.43;3.00;;;;;;;-141.84;100.00;118956.03;5007649;28;20222;-69
2023/12/10 09:09:25;;;;;;;13.93;3.30;;;;;;;-141.84;100.00;119222.75;5016086;28;20716;-69
2023/12/10 09:11:53;;;;;;;12.20;4.07;;;;;;;-141.84;100.00;118956.03;5016462;28;20241;-69
2023/12/10 09:14:22;;;;;;;12.47;4.20;;;;;;;-141.84;100.00;119224.81;5012764;28;20282;-70
2023/12/10 09:16:51;;;;;;;10.60;3.40;;;;;;;-141.84;100.00;119224.81;5008622;28;20250;-70
2023/12/10 09:19:21;;;;;;;12.30;3.30;;;;;;;-141.84;100.00;119222.75;5007996;28;20288;-67
2023/12/10 09:21:50;;;;;;;12.33;3.50;;;;;;;-141.84;100.00;119224.81;5006789;28;20222;-66
2023/12/10 09:24:20;;;;;;;10.43;3.70;;;;;;;-141.84;100.00;119224.81;5009485;28;20301;-66
2023/12/10 09:26:49;;;;;;;11.87;3.77;;;;;;;-141.84;100.00;119224.81;5011537;28;20191;-66
2023/12/10 09:29:18;;;;;;;10.13;3.63;;;;;;;-141.84;100.00;119224.81;5021208;28;20400;-67
2023/12/10 09:31:46;;;;;;;10.63;2.80;;;;;;;-141.84;100.00;119224.81;5025216;28;20218;-68
2023/12/10 09:34:15;;;;;;;11.00;3.53;;;;;;;-141.84;100.00;119224.81;5015431;28;20317;-66
2023/12/10 09:36:44;;;;;;;10.20;2.80;;;;;;;-141.84;100.00;119224.81;5012993;28;20317;-67
2023/12/10 09:39:14;;;;;;;12.93;3.20;;;;;;;-141.84;100.00;119222.75;5013423;28;20646;-67
2023/12/10 09:41:44;;;;;;;15.50;3.57;;;;;;;-141.84;100.00;118422.72;5015706;28;20234;-67
2023/12/10 09:44:12;;;;;;;12.83;3.33;;;;;;;-141.84;100.00;118689.38;5011601;28;20240;-67
2023/12/10 09:46:42;;;;;;;10.60;2.97;;;;;;;-141.84;100.00;118689.38;5009370;28;20265;-67
2023/12/10 09:49:11;;;;;;;9.97;3.50;;;;;;;-141.84;100.00;119224.81;5014875;28;20269;-67
2023/12/10 09:51:40;;;;;;;12.87;3.20;;;;;;;-141.84;100.00;119224.81;5012352;28;20309;-66
2023/12/10 09:54:09;;;;;;;10.47;2.83;;;;;;;-141.84;100.00;119224.81;5019291;28;20198;-67
2023/12/10 09:56:37;;;;;;;8.33;3.20;;;;;;;-141.84;100.00;119224.81;5017850;28;20623;-66
2023/12/10 09:59:08;;;;;;;12.43;2.87;;;;;;;-141.84;100.00;119224.81;5007830;28;20218;-66
2023/12/10 10:01:37;;;;;;;9.77;3.03;;;;;;;-141.84;100.00;119222.75;5013448;28;21784;-66
2023/12/10 10:04:05;;;;;;;6.93;2.90;;;;;;;-141.84;100.00;119222.75;5012819;28;20219;-67
2023/12/10 10:06:34;;;;;;;9.60;3.03;;;;;;;-141.84;100.00;119224.81;5012150;28;20249;-66
2023/12/10 10:09:06;;;;;;;9.53;3.50;;;;;;;-141.84;100.00;119224.81;5008684;28;20656;-67
2023/12/10 10:11:34;;;;;;;11.40;3.13;;;;;;;-141.84;100.00;118689.38;5000543;28;20301;-66
2023/12/10 10:14:03;;;;;;;8.10;2.73;;;;;;;-141.84;100.00;117889.44;5005934;28;20233;-68
2023/12/10 10:16:34;;;;;;;11.07;3.33;;;;;;;-141.84;100.00;117622.84;5006164;28;20258;-66
2023/12/10 10:19:03;;;;;;;7.90;2.03;;;;;;;-141.84;100.00;117622.84;5006142;28;20232;-67
2023/12/10 10:21:32;;;;;;;8.07;2.60;;;;;;;-141.84;100.00;117889.44;5013293;28;20226;-67
2023/12/10 10:24:00;;;;;;;8.23;2.50;;;;;;;-141.84;100.00;118156.06;5013744;28;20210;-67
2023/12/10 10:26:29;;;;;;;9.37;2.90;;;;;;;-141.84;100.00;117356.25;5013765;28;20611;-67
2023/12/10 10:28:57;;;;;;;9.77;2.60;;;;;;;-141.84;100.00;116823.13;5013342;28;20318;-67
2023/12/10 10:31:26;;;;;;;8.33;2.80;;;;;;;-141.84;100.00;114424.91;5009699;28;20229;-66
2023/12/10 10:33:58;;;;;;;11.90;2.70;;;;;;;-141.84;100.00;110963.31;5018193;28;20230;-66
2023/12/10 10:36:26;;;;;;;4.80;1.87;;;;;;;-141.84;100.00;109898.81;5020198;28;20253;-66
2023/12/10 10:38:57;;;;;;;6.20;1.90;;;;;;;-141.84;100.00;104580.41;5011473;28;20249;-67
2023/12/10 10:41:27;;;;;;;6.90;1.80;;;;;;;-141.84;100.00;102189.38;5019044;28;20194;-66
2023/12/10 10:43:58;;;;;;;5.37;1.93;;;;;;;-141.84;100.00;97146.31;5011786;28;20329;-67
2023/12/10 10:46:27;;;;;;;9.73;2.20;;;;;;;-141.84;100.00;93434.41;5018550;28;20643;-66
2023/12/10 10:48:58;;;;;;;5.23;1.60;;;;;;;-141.84;100.00;87608.25;5005499;28;20277;-66
2023/12/10 10:51:28;;;;;;;2.70;1.57;;;;;;;-141.84;100.00;91579.72;5018976;28;20245;-66
2023/12/10 10:53:58;;;;;;;4.50;1.50;;;;;;;-141.84;100.00;94759.69;5027447;28;20659;-66
2023/12/10 10:56:27;;;;;;;5.37;1.53;;;;;;;-141.84;100.00;94759.69;5016869;28;20214;-67
2023/12/10 10:58:56;;;;;;;4.83;1.80;;;;;;;-141.84;100.00;95289.94;5008895;28;20694;-67
2023/12/10 11:01:39;;;;;;;2.87;1.63;;;;;;;-141.84;100.00;86814.44;5019378;28;20270;-66
2023/12/10 11:04:12;;;;;;;4.30;1.30;;;;;;;-141.84;100.00;84433.91;5008637;28;20326;-66
2023/12/10 11:06:41;;;;;;;3.50;1.30;;;;;;;-141.84;100.00;83640.72;5006296;28;20763;-66
2023/12/10 11:09:10;;;;;;;2.30;1.10;;;;;;;-141.84;100.00;82319.06;5010489;28;20584;-69